sensor_id;sensor_type;location;lat;lon;timestamp;noise_LAeq;noise_LA_min;noise_LA_max;noise_LA01;noise_LA95
72028;Laerm;59781;52.090;5.030;2023-08-08T00:01:21;39.50;36.12;44.12;;
72028;Laerm;59781;52.090;5.030;2023-08-08T00:03:47;40.15;36.82;49.20;;
72028;Laerm;59781;52.090;5.030;2023-08-08T00:06:13;41.39;36.20;50.64;;
72028;Laerm;59781;52.090;5.030;2023-08-08T00:08:39;39.15;35.57;44.49;;
72028;Laerm;59781;52.090;5.030;2023-08-08T00:11:05;38.33;35.75;44.28;;
72028;Laerm;59781;52.090;5.030;2023-08-08T00:13:31;38.76;35.87;44.11;;
72028;Laerm;59781;52.090;5.030;2023-08-08T00:15:57;38.40;35.54;44.16;;
72028;Laerm;59781;52.090;5.030;2023-08-08T00:18:22;38.00;35.50;42.26;;
72028;Laerm;59781;52.090;5.030;2023-08-08T00:20:48;39.77;36.19;45.58;;
72028;Laerm;59781;52.090;5.030;2023-08-08T00:23:14;39.13;35.78;44.29;;
72028;Laerm;59781;52.090;5.030;2023-08-08T00:25:39;37.85;35.54;42.12;;
72028;Laerm;59781;52.090;5.030;2023-08-08T00:28:05;37.71;35.62;42.03;;
72028;Laerm;59781;52.090;5.030;2023-08-08T00:30:31;38.38;35.28;44.86;;
72028;Laerm;59781;52.090;5.030;2023-08-08T00:32:56;37.60;35.40;45.25;;
72028;Laerm;59781;52.090;5.030;2023-08-08T00:35:22;37.75;35.37;42.75;;
72028;Laerm;59781;52.090;5.030;2023-08-08T00:37:49;38.41;34.75;47.16;;
72028;Laerm;59781;52.090;5.030;2023-08-08T00:40:14;37.13;34.90;46.90;;
72028;Laerm;59781;52.090;5.030;2023-08-08T00:42:40;37.92;35.29;41.76;;
72028;Laerm;59781;52.090;5.030;2023-08-08T00:45:06;39.28;35.78;45.05;;
72028;Laerm;59781;52.090;5.030;2023-08-08T00:47:33;38.72;35.86;43.12;;
72028;Laerm;59781;52.090;5.030;2023-08-08T00:50:03;38.16;35.33;45.93;;
72028;Laerm;59781;52.090;5.030;2023-08-08T00:52:30;37.83;35.38;42.38;;
72028;Laerm;59781;52.090;5.030;2023-08-08T00:54:56;38.37;35.39;44.52;;
72028;Laerm;59781;52.090;5.030;2023-08-08T00:57:23;37.58;35.43;41.57;;
72028;Laerm;59781;52.090;5.030;2023-08-08T00:59:51;38.17;35.31;43.69;;
72028;Laerm;59781;52.090;5.030;2023-08-08T01:02:17;37.89;35.42;53.53;;
72028;Laerm;59781;52.090;5.030;2023-08-08T01:04:43;38.27;34.85;51.38;;
72028;Laerm;59781;52.090;5.030;2023-08-08T01:07:27;37.76;35.43;43.35;;
72028;Laerm;59781;52.090;5.030;2023-08-08T01:10:15;38.31;35.71;44.09;;
72028;Laerm;59781;52.090;5.030;2023-08-08T01:12:49;38.07;35.19;46.85;;
72028;Laerm;59781;52.090;5.030;2023-08-08T01:15:18;37.52;35.44;44.01;;
72028;Laerm;59781;52.090;5.030;2023-08-08T01:17:46;37.62;35.26;41.47;;
72028;Laerm;59781;52.090;5.030;2023-08-08T01:20:14;37.97;35.54;44.92;;
72028;Laerm;59781;52.090;5.030;2023-08-08T01:23:24;37.49;35.13;45.98;;
72028;Laerm;59781;52.090;5.030;2023-08-08T01:25:57;37.91;35.50;42.33;;
72028;Laerm;59781;52.090;5.030;2023-08-08T01:28:26;37.98;35.47;41.96;;
72028;Laerm;59781;52.090;5.030;2023-08-08T01:30:51;37.54;35.41;41.24;;
72028;Laerm;59781;52.090;5.030;2023-08-08T01:33:18;38.13;35.49;51.51;;
72028;Laerm;59781;52.090;5.030;2023-08-08T01:35:52;37.42;35.24;40.93;;
72028;Laerm;59781;52.090;5.030;2023-08-08T01:38:33;37.93;35.45;46.20;;
72028;Laerm;59781;52.090;5.030;2023-08-08T01:41:06;37.67;35.04;41.96;;
72028;Laerm;59781;52.090;5.030;2023-08-08T01:43:34;37.91;35.51;45.33;;
72028;Laerm;59781;52.090;5.030;2023-08-08T01:46:04;37.59;35.34;41.65;;
72028;Laerm;59781;52.090;5.030;2023-08-08T01:48:30;37.85;35.45;43.06;;
72028;Laerm;59781;52.090;5.030;2023-08-08T01:50:56;37.47;35.29;42.26;;
72028;Laerm;59781;52.090;5.030;2023-08-08T01:53:22;38.20;35.41;49.39;;
72028;Laerm;59781;52.090;5.030;2023-08-08T01:55:48;37.67;35.37;41.70;;
72028;Laerm;59781;52.090;5.030;2023-08-08T01:58:13;37.87;35.51;43.41;;
72028;Laerm;59781;52.090;5.030;2023-08-08T02:00:39;38.27;35.55;42.83;;
72028;Laerm;59781;52.090;5.030;2023-08-08T02:03:06;38.75;35.85;44.81;;
72028;Laerm;59781;52.090;5.030;2023-08-08T02:05:32;40.50;35.41;50.60;;
72028;Laerm;59781;52.090;5.030;2023-08-08T02:07:58;37.97;35.74;42.40;;
72028;Laerm;59781;52.090;5.030;2023-08-08T02:10:24;37.76;35.58;40.22;;
72028;Laerm;59781;52.090;5.030;2023-08-08T02:12:49;37.80;35.36;44.42;;
72028;Laerm;59781;52.090;5.030;2023-08-08T02:15:15;38.09;35.45;42.18;;
72028;Laerm;59781;52.090;5.030;2023-08-08T02:17:41;38.94;36.07;46.24;;
72028;Laerm;59781;52.090;5.030;2023-08-08T02:20:07;38.22;35.45;45.81;;
72028;Laerm;59781;52.090;5.030;2023-08-08T02:22:34;37.85;35.85;41.85;;
72028;Laerm;59781;52.090;5.030;2023-08-08T02:25:00;39.17;36.39;44.80;;
72028;Laerm;59781;52.090;5.030;2023-08-08T02:27:25;38.30;35.53;43.23;;
72028;Laerm;59781;52.090;5.030;2023-08-08T02:29:51;38.64;36.41;42.76;;
72028;Laerm;59781;52.090;5.030;2023-08-08T02:32:16;38.26;35.27;43.99;;
72028;Laerm;59781;52.090;5.030;2023-08-08T02:34:42;38.35;35.86;43.29;;
72028;Laerm;59781;52.090;5.030;2023-08-08T02:37:08;38.82;35.80;45.18;;
72028;Laerm;59781;52.090;5.030;2023-08-08T02:39:34;38.56;36.10;42.11;;
72028;Laerm;59781;52.090;5.030;2023-08-08T02:41:59;38.51;35.71;42.77;;
72028;Laerm;59781;52.090;5.030;2023-08-08T02:44:26;40.05;36.28;46.75;;
72028;Laerm;59781;52.090;5.030;2023-08-08T02:46:51;40.18;36.95;44.37;;
72028;Laerm;59781;52.090;5.030;2023-08-08T02:49:17;39.37;36.32;44.03;;
72028;Laerm;59781;52.090;5.030;2023-08-08T02:51:44;38.78;35.81;44.01;;
72028;Laerm;59781;52.090;5.030;2023-08-08T02:54:10;39.33;36.40;46.41;;
72028;Laerm;59781;52.090;5.030;2023-08-08T02:56:38;40.54;37.24;45.22;;
72028;Laerm;59781;52.090;5.030;2023-08-08T02:59:03;39.07;36.23;43.44;;
72028;Laerm;59781;52.090;5.030;2023-08-08T03:01:30;39.55;36.46;43.47;;
72028;Laerm;59781;52.090;5.030;2023-08-08T03:03:57;38.75;35.66;44.59;;
72028;Laerm;59781;52.090;5.030;2023-08-08T03:06:25;39.38;36.32;45.34;;
72028;Laerm;59781;52.090;5.030;2023-08-08T03:08:51;39.61;36.29;45.56;;
72028;Laerm;59781;52.090;5.030;2023-08-08T03:11:17;39.12;36.29;44.24;;
72028;Laerm;59781;52.090;5.030;2023-08-08T03:13:44;40.27;37.23;47.58;;
72028;Laerm;59781;52.090;5.030;2023-08-08T03:16:09;39.40;36.90;42.32;;
72028;Laerm;59781;52.090;5.030;2023-08-08T03:18:35;40.05;37.04;44.33;;
72028;Laerm;59781;52.090;5.030;2023-08-08T03:21:01;41.62;38.20;45.56;;
72028;Laerm;59781;52.090;5.030;2023-08-08T03:23:31;40.87;37.81;46.47;;
72028;Laerm;59781;52.090;5.030;2023-08-08T03:25:57;41.16;38.43;45.35;;
72028;Laerm;59781;52.090;5.030;2023-08-08T03:28:25;40.82;38.12;44.92;;
72028;Laerm;59781;52.090;5.030;2023-08-08T03:30:52;39.70;36.56;43.84;;
72028;Laerm;59781;52.090;5.030;2023-08-08T03:33:18;42.10;38.67;46.20;;
72028;Laerm;59781;52.090;5.030;2023-08-08T03:35:43;41.18;37.80;46.55;;
72028;Laerm;59781;52.090;5.030;2023-08-08T03:38:09;40.31;37.81;43.61;;
72028;Laerm;59781;52.090;5.030;2023-08-08T03:40:35;41.00;38.03;46.28;;
72028;Laerm;59781;52.090;5.030;2023-08-08T03:43:01;41.19;38.11;46.02;;
72028;Laerm;59781;52.090;5.030;2023-08-08T03:45:28;41.56;38.12;47.84;;
72028;Laerm;59781;52.090;5.030;2023-08-08T03:47:54;41.53;38.25;48.81;;
72028;Laerm;59781;52.090;5.030;2023-08-08T03:50:20;41.36;38.21;46.11;;
72028;Laerm;59781;52.090;5.030;2023-08-08T03:52:46;41.49;38.57;44.94;;
72028;Laerm;59781;52.090;5.030;2023-08-08T03:55:12;41.12;38.42;44.15;;
72028;Laerm;59781;52.090;5.030;2023-08-08T03:57:38;40.99;38.23;51.31;;
72028;Laerm;59781;52.090;5.030;2023-08-08T04:00:05;41.24;38.22;61.05;;
72028;Laerm;59781;52.090;5.030;2023-08-08T04:02:38;41.26;38.11;47.75;;
72028;Laerm;59781;52.090;5.030;2023-08-08T04:05:05;43.76;38.28;61.51;;
72028;Laerm;59781;52.090;5.030;2023-08-08T04:07:30;40.72;37.81;49.70;;
72028;Laerm;59781;52.090;5.030;2023-08-08T04:09:56;41.18;38.66;54.94;;
72028;Laerm;59781;52.090;5.030;2023-08-08T04:12:22;44.42;37.99;68.51;;
72028;Laerm;59781;52.090;5.030;2023-08-08T04:14:47;41.55;38.85;46.92;;
72028;Laerm;59781;52.090;5.030;2023-08-08T04:17:13;41.90;38.59;59.16;;
72028;Laerm;59781;52.090;5.030;2023-08-08T04:19:39;41.95;39.00;46.61;;
72028;Laerm;59781;52.090;5.030;2023-08-08T04:22:04;40.99;38.77;45.11;;
72028;Laerm;59781;52.090;5.030;2023-08-08T04:24:30;42.01;38.93;48.59;;
72028;Laerm;59781;52.090;5.030;2023-08-08T04:26:56;40.71;38.38;43.53;;
72028;Laerm;59781;52.090;5.030;2023-08-08T04:29:21;41.34;38.72;46.30;;
72028;Laerm;59781;52.090;5.030;2023-08-08T04:31:47;41.86;38.69;50.62;;
72028;Laerm;59781;52.090;5.030;2023-08-08T04:34:13;41.92;39.11;45.64;;
72028;Laerm;59781;52.090;5.030;2023-08-08T04:36:38;41.80;38.78;44.83;;
72028;Laerm;59781;52.090;5.030;2023-08-08T04:39:04;41.58;39.36;45.26;;
72028;Laerm;59781;52.090;5.030;2023-08-08T04:41:30;42.47;39.21;47.80;;
72028;Laerm;59781;52.090;5.030;2023-08-08T04:43:55;42.93;39.99;52.31;;
72028;Laerm;59781;52.090;5.030;2023-08-08T04:46:21;46.27;40.48;57.33;;
72028;Laerm;59781;52.090;5.030;2023-08-08T04:48:46;45.07;41.47;53.13;;
72028;Laerm;59781;52.090;5.030;2023-08-08T04:51:12;44.75;41.03;53.50;;
72028;Laerm;59781;52.090;5.030;2023-08-08T04:53:38;45.91;42.43;54.46;;
72028;Laerm;59781;52.090;5.030;2023-08-08T04:56:04;47.29;43.15;52.99;;
72028;Laerm;59781;52.090;5.030;2023-08-08T04:58:29;46.27;42.68;58.66;;
72028;Laerm;59781;52.090;5.030;2023-08-08T05:00:55;45.18;41.57;49.55;;
72028;Laerm;59781;52.090;5.030;2023-08-08T05:03:21;44.25;40.76;48.18;;
72028;Laerm;59781;52.090;5.030;2023-08-08T05:05:47;44.05;40.99;51.11;;
72028;Laerm;59781;52.090;5.030;2023-08-08T05:08:13;44.89;41.29;59.04;;
72028;Laerm;59781;52.090;5.030;2023-08-08T05:10:39;47.62;40.88;62.93;;
72028;Laerm;59781;52.090;5.030;2023-08-08T05:13:05;47.75;41.60;58.05;;
72028;Laerm;59781;52.090;5.030;2023-08-08T05:15:30;46.20;42.05;53.93;;
72028;Laerm;59781;52.090;5.030;2023-08-08T05:17:56;45.81;42.42;52.22;;
72028;Laerm;59781;52.090;5.030;2023-08-08T05:20:22;46.91;41.86;60.21;;
72028;Laerm;59781;52.090;5.030;2023-08-08T05:22:48;46.53;42.37;55.77;;
72028;Laerm;59781;52.090;5.030;2023-08-08T05:25:14;45.57;42.23;56.95;;
72028;Laerm;59781;52.090;5.030;2023-08-08T05:27:40;44.46;40.96;47.43;;
72028;Laerm;59781;52.090;5.030;2023-08-08T05:30:06;44.65;41.36;62.34;;
72028;Laerm;59781;52.090;5.030;2023-08-08T05:32:32;43.88;40.80;50.82;;
72028;Laerm;59781;52.090;5.030;2023-08-08T05:34:58;44.54;40.70;55.60;;
72028;Laerm;59781;52.090;5.030;2023-08-08T05:37:24;45.79;41.31;56.43;;
72028;Laerm;59781;52.090;5.030;2023-08-08T05:39:50;45.13;41.93;49.30;;
72028;Laerm;59781;52.090;5.030;2023-08-08T05:42:15;44.73;41.59;51.33;;
72028;Laerm;59781;52.090;5.030;2023-08-08T05:44:41;45.33;42.58;53.34;;
72028;Laerm;59781;52.090;5.030;2023-08-08T05:47:10;45.44;41.57;49.38;;
72028;Laerm;59781;52.090;5.030;2023-08-08T05:49:36;44.82;42.29;55.73;;
72028;Laerm;59781;52.090;5.030;2023-08-08T05:52:02;45.02;42.38;49.14;;
72028;Laerm;59781;52.090;5.030;2023-08-08T05:54:28;45.01;41.60;57.23;;
72028;Laerm;59781;52.090;5.030;2023-08-08T05:56:54;45.61;42.34;54.84;;
72028;Laerm;59781;52.090;5.030;2023-08-08T05:59:20;45.61;41.78;54.14;;
72028;Laerm;59781;52.090;5.030;2023-08-08T06:01:45;44.88;41.61;53.92;;
72028;Laerm;59781;52.090;5.030;2023-08-08T06:04:12;45.14;40.96;54.63;;
72028;Laerm;59781;52.090;5.030;2023-08-08T06:06:39;44.93;40.37;55.80;;
72028;Laerm;59781;52.090;5.030;2023-08-08T06:09:05;44.19;40.16;51.85;;
72028;Laerm;59781;52.090;5.030;2023-08-08T06:11:30;43.85;39.38;61.06;;
72028;Laerm;59781;52.090;5.030;2023-08-08T06:13:56;43.01;40.31;59.29;;
72028;Laerm;59781;52.090;5.030;2023-08-08T06:16:22;43.68;39.80;64.36;;
72028;Laerm;59781;52.090;5.030;2023-08-08T06:18:48;43.40;39.34;58.70;;
72028;Laerm;59781;52.090;5.030;2023-08-08T06:21:14;43.94;39.94;65.05;;
72028;Laerm;59781;52.090;5.030;2023-08-08T06:23:39;43.62;39.80;55.67;;
72028;Laerm;59781;52.090;5.030;2023-08-08T06:26:05;42.73;39.73;50.70;;
72028;Laerm;59781;52.090;5.030;2023-08-08T06:28:32;44.05;39.70;48.77;;
72028;Laerm;59781;52.090;5.030;2023-08-08T06:30:58;43.38;40.06;62.87;;
72028;Laerm;59781;52.090;5.030;2023-08-08T06:33:24;43.50;39.68;56.80;;
72028;Laerm;59781;52.090;5.030;2023-08-08T06:35:50;43.26;39.72;62.56;;
72028;Laerm;59781;52.090;5.030;2023-08-08T06:38:15;43.18;39.42;61.54;;
72028;Laerm;59781;52.090;5.030;2023-08-08T06:40:41;44.56;41.23;53.85;;
72028;Laerm;59781;52.090;5.030;2023-08-08T06:43:06;44.65;41.13;50.85;;
72028;Laerm;59781;52.090;5.030;2023-08-08T06:45:32;43.06;39.48;55.15;;
72028;Laerm;59781;52.090;5.030;2023-08-08T06:47:58;43.53;39.75;60.57;;
72028;Laerm;59781;52.090;5.030;2023-08-08T06:50:23;43.76;40.26;62.25;;
72028;Laerm;59781;52.090;5.030;2023-08-08T06:52:52;44.26;39.97;62.55;;
72028;Laerm;59781;52.090;5.030;2023-08-08T06:55:17;43.14;39.41;62.62;;
72028;Laerm;59781;52.090;5.030;2023-08-08T06:57:43;43.20;39.30;56.83;;
72028;Laerm;59781;52.090;5.030;2023-08-08T07:00:10;42.19;39.57;51.36;;
72028;Laerm;59781;52.090;5.030;2023-08-08T07:02:39;42.47;39.42;53.12;;
72028;Laerm;59781;52.090;5.030;2023-08-08T07:05:06;43.42;40.03;50.59;;
72028;Laerm;59781;52.090;5.030;2023-08-08T07:07:32;43.55;40.22;51.05;;
72028;Laerm;59781;52.090;5.030;2023-08-08T07:09:59;42.88;39.18;49.72;;
72028;Laerm;59781;52.090;5.030;2023-08-08T07:12:25;42.69;39.47;50.58;;
72028;Laerm;59781;52.090;5.030;2023-08-08T07:14:51;42.42;39.32;52.27;;
72028;Laerm;59781;52.090;5.030;2023-08-08T07:17:16;43.88;39.60;53.79;;
72028;Laerm;59781;52.090;5.030;2023-08-08T07:19:42;43.06;39.73;48.23;;
72028;Laerm;59781;52.090;5.030;2023-08-08T07:22:08;43.49;39.48;58.49;;
72028;Laerm;59781;52.090;5.030;2023-08-08T07:24:34;43.80;39.92;48.23;;
72028;Laerm;59781;52.090;5.030;2023-08-08T07:27:00;45.33;40.90;59.66;;
72028;Laerm;59781;52.090;5.030;2023-08-08T07:29:26;45.05;40.25;54.07;;
72028;Laerm;59781;52.090;5.030;2023-08-08T07:31:54;45.41;40.28;63.51;;
72028;Laerm;59781;52.090;5.030;2023-08-08T07:34:21;42.46;39.13;51.40;;
72028;Laerm;59781;52.090;5.030;2023-08-08T07:36:47;42.03;38.99;50.26;;
72028;Laerm;59781;52.090;5.030;2023-08-08T07:39:13;42.63;38.98;54.37;;
72028;Laerm;59781;52.090;5.030;2023-08-08T07:41:39;44.52;39.85;63.81;;
72028;Laerm;59781;52.090;5.030;2023-08-08T07:44:05;46.67;41.34;68.32;;
72028;Laerm;59781;52.090;5.030;2023-08-08T07:46:31;45.36;40.15;64.21;;
72028;Laerm;59781;52.090;5.030;2023-08-08T07:48:57;44.46;39.71;60.04;;
72028;Laerm;59781;52.090;5.030;2023-08-08T07:51:28;50.36;41.57;65.39;;
72028;Laerm;59781;52.090;5.030;2023-08-08T07:53:53;43.47;39.84;49.90;;
72028;Laerm;59781;52.090;5.030;2023-08-08T07:56:19;43.17;39.37;57.21;;
72028;Laerm;59781;52.090;5.030;2023-08-08T07:58:44;47.39;39.85;70.38;;
72028;Laerm;59781;52.090;5.030;2023-08-08T08:01:10;45.12;39.82;54.44;;
72028;Laerm;59781;52.090;5.030;2023-08-08T08:03:37;42.28;39.00;50.00;;
72028;Laerm;59781;52.090;5.030;2023-08-08T08:06:03;44.66;39.49;52.61;;
72028;Laerm;59781;52.090;5.030;2023-08-08T08:08:28;43.43;38.67;57.11;;
72028;Laerm;59781;52.090;5.030;2023-08-08T08:10:54;43.35;40.04;49.15;;
72028;Laerm;59781;52.090;5.030;2023-08-08T08:13:20;43.06;39.49;49.84;;
72028;Laerm;59781;52.090;5.030;2023-08-08T08:15:45;44.62;39.78;53.80;;
72028;Laerm;59781;52.090;5.030;2023-08-08T08:18:11;43.57;39.80;56.33;;
72028;Laerm;59781;52.090;5.030;2023-08-08T08:20:38;42.67;39.43;48.39;;
72028;Laerm;59781;52.090;5.030;2023-08-08T08:23:04;43.15;39.26;52.16;;
72028;Laerm;59781;52.090;5.030;2023-08-08T08:25:30;42.65;39.24;53.31;;
72028;Laerm;59781;52.090;5.030;2023-08-08T08:27:57;43.48;39.19;50.87;;
72028;Laerm;59781;52.090;5.030;2023-08-08T08:30:23;45.52;40.07;56.87;;
72028;Laerm;59781;52.090;5.030;2023-08-08T08:32:51;45.71;39.26;59.09;;
72028;Laerm;59781;52.090;5.030;2023-08-08T08:35:17;45.88;39.64;58.96;;
72028;Laerm;59781;52.090;5.030;2023-08-08T08:37:43;43.35;39.47;55.13;;
72028;Laerm;59781;52.090;5.030;2023-08-08T08:40:10;43.83;40.33;52.98;;
72028;Laerm;59781;52.090;5.030;2023-08-08T08:42:38;44.13;40.15;52.26;;
72028;Laerm;59781;52.090;5.030;2023-08-08T08:45:05;47.37;40.54;63.18;;
72028;Laerm;59781;52.090;5.030;2023-08-08T08:47:32;49.91;40.37;65.41;;
72028;Laerm;59781;52.090;5.030;2023-08-08T08:50:00;46.78;40.20;55.59;;
72028;Laerm;59781;52.090;5.030;2023-08-08T08:52:27;47.10;40.96;64.33;;
72028;Laerm;59781;52.090;5.030;2023-08-08T08:54:54;43.92;40.19;65.21;;
72028;Laerm;59781;52.090;5.030;2023-08-08T08:57:22;43.53;39.54;64.80;;
72028;Laerm;59781;52.090;5.030;2023-08-08T08:59:52;44.31;40.14;65.81;;
72028;Laerm;59781;52.090;5.030;2023-08-08T09:02:19;43.93;39.40;54.31;;
72028;Laerm;59781;52.090;5.030;2023-08-08T09:04:45;43.51;39.65;53.61;;
72028;Laerm;59781;52.090;5.030;2023-08-08T09:07:12;42.99;39.01;60.51;;
72028;Laerm;59781;52.090;5.030;2023-08-08T09:09:38;43.07;39.24;57.51;;
72028;Laerm;59781;52.090;5.030;2023-08-08T09:12:04;43.64;38.99;59.17;;
72028;Laerm;59781;52.090;5.030;2023-08-08T09:14:30;43.18;39.34;51.65;;
72028;Laerm;59781;52.090;5.030;2023-08-08T09:16:56;45.22;40.35;57.46;;
72028;Laerm;59781;52.090;5.030;2023-08-08T09:19:24;45.04;40.59;60.33;;
72028;Laerm;59781;52.090;5.030;2023-08-08T09:21:52;46.12;39.99;64.42;;
72028;Laerm;59781;52.090;5.030;2023-08-08T09:24:18;44.60;40.24;63.48;;
72028;Laerm;59781;52.090;5.030;2023-08-08T09:26:45;45.80;41.31;57.15;;
72028;Laerm;59781;52.090;5.030;2023-08-08T09:29:13;44.11;40.90;57.38;;
72028;Laerm;59781;52.090;5.030;2023-08-08T09:31:40;43.82;40.48;54.87;;
72028;Laerm;59781;52.090;5.030;2023-08-08T09:34:06;45.23;40.45;64.63;;
72028;Laerm;59781;52.090;5.030;2023-08-08T09:36:33;45.26;40.11;68.24;;
72028;Laerm;59781;52.090;5.030;2023-08-08T09:38:59;45.94;41.45;53.41;;
72028;Laerm;59781;52.090;5.030;2023-08-08T09:41:25;45.16;41.27;52.34;;
72028;Laerm;59781;52.090;5.030;2023-08-08T09:43:53;43.53;40.33;50.18;;
72028;Laerm;59781;52.090;5.030;2023-08-08T09:46:19;44.45;40.37;51.00;;
72028;Laerm;59781;52.090;5.030;2023-08-08T09:48:46;47.04;42.78;64.35;;
72028;Laerm;59781;52.090;5.030;2023-08-08T09:51:13;46.08;41.49;58.61;;
72028;Laerm;59781;52.090;5.030;2023-08-08T09:53:40;45.44;40.14;60.88;;
72028;Laerm;59781;52.090;5.030;2023-08-08T09:56:07;44.91;40.05;57.63;;
72028;Laerm;59781;52.090;5.030;2023-08-08T09:58:34;44.55;39.83;54.33;;
72028;Laerm;59781;52.090;5.030;2023-08-08T10:01:00;44.44;40.56;52.29;;
72028;Laerm;59781;52.090;5.030;2023-08-08T10:03:26;43.51;39.46;53.64;;
72028;Laerm;59781;52.090;5.030;2023-08-08T10:05:52;46.67;39.91;62.63;;
72028;Laerm;59781;52.090;5.030;2023-08-08T10:08:19;44.11;40.91;53.43;;
72028;Laerm;59781;52.090;5.030;2023-08-08T10:10:48;45.96;40.79;60.35;;
72028;Laerm;59781;52.090;5.030;2023-08-08T10:13:24;44.79;40.50;55.58;;
72028;Laerm;59781;52.090;5.030;2023-08-08T10:15:53;44.31;39.86;66.87;;
72028;Laerm;59781;52.090;5.030;2023-08-08T10:18:23;43.37;40.30;51.42;;
72028;Laerm;59781;52.090;5.030;2023-08-08T10:20:51;45.04;40.50;61.91;;
72028;Laerm;59781;52.090;5.030;2023-08-08T10:23:18;44.70;39.94;57.24;;
72028;Laerm;59781;52.090;5.030;2023-08-08T10:25:50;44.43;39.53;52.60;;
72028;Laerm;59781;52.090;5.030;2023-08-08T10:28:20;47.86;40.93;76.34;;
72028;Laerm;59781;52.090;5.030;2023-08-08T10:30:52;45.78;40.20;58.91;;
72028;Laerm;59781;52.090;5.030;2023-08-08T10:33:27;45.60;40.75;67.59;;
72028;Laerm;59781;52.090;5.030;2023-08-08T10:38:26;43.32;39.43;56.05;;
72028;Laerm;59781;52.090;5.030;2023-08-08T10:41:02;43.17;40.05;52.26;;
72028;Laerm;59781;52.090;5.030;2023-08-08T10:43:30;43.82;40.17;55.20;;
72028;Laerm;59781;52.090;5.030;2023-08-08T10:46:03;45.39;40.20;70.78;;
72028;Laerm;59781;52.090;5.030;2023-08-08T10:48:30;44.31;40.20;53.96;;
72028;Laerm;59781;52.090;5.030;2023-08-08T10:51:00;44.78;40.74;58.56;;
72028;Laerm;59781;52.090;5.030;2023-08-08T10:53:28;43.11;39.51;58.39;;
72028;Laerm;59781;52.090;5.030;2023-08-08T10:56:03;43.17;39.27;49.66;;
72028;Laerm;59781;52.090;5.030;2023-08-08T10:58:41;42.83;39.98;46.83;;
72028;Laerm;59781;52.090;5.030;2023-08-08T11:01:08;43.74;39.10;57.20;;
72028;Laerm;59781;52.090;5.030;2023-08-08T11:03:40;44.10;40.43;54.27;;
72028;Laerm;59781;52.090;5.030;2023-08-08T11:06:10;45.85;40.92;57.83;;
72028;Laerm;59781;52.090;5.030;2023-08-08T11:08:37;49.03;41.48;64.04;;
72028;Laerm;59781;52.090;5.030;2023-08-08T11:11:05;46.37;41.01;66.76;;
72028;Laerm;59781;52.090;5.030;2023-08-08T11:13:33;54.51;39.90;77.77;;
72028;Laerm;59781;52.090;5.030;2023-08-08T11:15:59;45.60;39.39;66.16;;
72028;Laerm;59781;52.090;5.030;2023-08-08T11:18:27;47.15;39.06;74.34;;
72028;Laerm;59781;52.090;5.030;2023-08-08T11:20:53;43.59;39.39;63.53;;
72028;Laerm;59781;52.090;5.030;2023-08-08T11:23:20;43.49;40.09;50.14;;
72028;Laerm;59781;52.090;5.030;2023-08-08T11:25:47;43.85;40.18;55.14;;
72028;Laerm;59781;52.090;5.030;2023-08-08T11:28:13;43.27;39.90;53.25;;
72028;Laerm;59781;52.090;5.030;2023-08-08T11:30:44;46.59;40.88;74.16;;
72028;Laerm;59781;52.090;5.030;2023-08-08T11:33:13;43.87;40.43;53.27;;
72028;Laerm;59781;52.090;5.030;2023-08-08T11:35:44;43.62;39.78;51.95;;
72028;Laerm;59781;52.090;5.030;2023-08-08T11:38:15;43.81;40.22;53.19;;
72028;Laerm;59781;52.090;5.030;2023-08-08T11:40:43;44.72;40.81;57.29;;
72028;Laerm;59781;52.090;5.030;2023-08-08T11:43:09;44.44;40.16;54.33;;
72028;Laerm;59781;52.090;5.030;2023-08-08T11:45:37;44.10;39.60;63.34;;
72028;Laerm;59781;52.090;5.030;2023-08-08T11:48:03;45.35;39.83;64.92;;
72028;Laerm;59781;52.090;5.030;2023-08-08T11:50:29;47.58;40.77;69.45;;
72028;Laerm;59781;52.090;5.030;2023-08-08T11:52:55;44.59;41.30;52.90;;
72028;Laerm;59781;52.090;5.030;2023-08-08T11:55:27;45.64;41.15;69.68;;
72028;Laerm;59781;52.090;5.030;2023-08-08T11:57:55;49.41;40.77;77.69;;
72028;Laerm;59781;52.090;5.030;2023-08-08T12:00:29;46.10;41.22;63.57;;
72028;Laerm;59781;52.090;5.030;2023-08-08T12:02:56;43.87;39.81;54.27;;
72028;Laerm;59781;52.090;5.030;2023-08-08T12:05:23;46.89;40.75;65.55;;
72028;Laerm;59781;52.090;5.030;2023-08-08T12:07:52;45.12;40.30;53.19;;
72028;Laerm;59781;52.090;5.030;2023-08-08T12:10:21;45.82;41.00;63.77;;
72028;Laerm;59781;52.090;5.030;2023-08-08T12:12:54;45.19;39.84;58.07;;
72028;Laerm;59781;52.090;5.030;2023-08-08T12:15:22;44.01;40.16;57.68;;
72028;Laerm;59781;52.090;5.030;2023-08-08T12:17:47;44.00;39.46;50.06;;
72028;Laerm;59781;52.090;5.030;2023-08-08T12:20:15;43.66;39.26;58.30;;
72028;Laerm;59781;52.090;5.030;2023-08-08T12:22:41;43.79;39.48;58.38;;
72028;Laerm;59781;52.090;5.030;2023-08-08T12:25:07;42.79;40.08;47.59;;
72028;Laerm;59781;52.090;5.030;2023-08-08T12:27:34;44.32;39.43;66.66;;
72028;Laerm;59781;52.090;5.030;2023-08-08T12:29:59;44.00;38.89;63.77;;
72028;Laerm;59781;52.090;5.030;2023-08-08T12:32:27;45.08;40.58;62.24;;
72028;Laerm;59781;52.090;5.030;2023-08-08T12:34:55;45.18;40.29;53.52;;
72028;Laerm;59781;52.090;5.030;2023-08-08T12:37:22;45.93;39.55;65.87;;
72028;Laerm;59781;52.090;5.030;2023-08-08T12:39:49;43.95;39.54;59.75;;
72028;Laerm;59781;52.090;5.030;2023-08-08T12:42:15;45.40;40.74;55.16;;
72028;Laerm;59781;52.090;5.030;2023-08-08T12:44:41;43.41;40.38;51.60;;
72028;Laerm;59781;52.090;5.030;2023-08-08T12:47:07;44.41;40.33;56.35;;
72028;Laerm;59781;52.090;5.030;2023-08-08T12:49:33;44.41;40.17;63.63;;
72028;Laerm;59781;52.090;5.030;2023-08-08T12:51:58;43.84;40.14;57.19;;
72028;Laerm;59781;52.090;5.030;2023-08-08T12:54:24;44.14;40.31;60.65;;
72028;Laerm;59781;52.090;5.030;2023-08-08T12:56:50;44.78;40.03;66.31;;
72028;Laerm;59781;52.090;5.030;2023-08-08T12:59:15;47.06;39.67;77.96;;
72028;Laerm;59781;52.090;5.030;2023-08-08T13:01:41;45.22;39.39;57.30;;
72028;Laerm;59781;52.090;5.030;2023-08-08T13:04:07;44.35;40.20;60.16;;
72028;Laerm;59781;52.090;5.030;2023-08-08T13:06:32;45.29;40.96;60.85;;
72028;Laerm;59781;52.090;5.030;2023-08-08T13:08:59;51.61;41.19;66.94;;
72028;Laerm;59781;52.090;5.030;2023-08-08T13:11:26;43.83;40.38;55.10;;
72028;Laerm;59781;52.090;5.030;2023-08-08T13:13:52;44.73;40.75;54.12;;
72028;Laerm;59781;52.090;5.030;2023-08-08T13:16:18;45.16;41.18;51.53;;
72028;Laerm;59781;52.090;5.030;2023-08-08T13:18:43;44.36;39.33;56.30;;
72028;Laerm;59781;52.090;5.030;2023-08-08T13:21:09;43.93;39.80;57.54;;
72028;Laerm;59781;52.090;5.030;2023-08-08T13:23:36;43.13;39.58;51.02;;
72028;Laerm;59781;52.090;5.030;2023-08-08T13:26:02;44.34;40.46;62.81;;
72028;Laerm;59781;52.090;5.030;2023-08-08T13:28:29;45.16;41.08;58.24;;
72028;Laerm;59781;52.090;5.030;2023-08-08T13:30:55;44.61;40.95;52.27;;
72028;Laerm;59781;52.090;5.030;2023-08-08T13:33:21;43.79;40.21;59.61;;
72028;Laerm;59781;52.090;5.030;2023-08-08T13:35:47;44.12;39.20;67.34;;
72028;Laerm;59781;52.090;5.030;2023-08-08T13:38:13;50.83;40.48;80.04;;
72028;Laerm;59781;52.090;5.030;2023-08-08T13:40:43;51.65;40.59;73.82;;
72028;Laerm;59781;52.090;5.030;2023-08-08T13:43:09;49.67;40.43;73.96;;
72028;Laerm;59781;52.090;5.030;2023-08-08T13:45:36;45.02;40.92;59.69;;